Ana Sayfa
METAR-TAF:

METAR-TAF

Havaalanları :

McAllen, Teksas, Amerika Birleşik Devletleri

Enlem: 26-10-47N, Boylam: 098-14-40W, yükseklik: 32 m

Güncel hava durumu gözlemi

Rapor saat 01:53 UTC de 21 dakika önce yapıldı.
Rüzgar doğu/güneydoğudan 6 kt
Sıcaklık 19°C
Nem 73%
Basınç 1013 hPa
Görüş mesafesi: 16.1 km
Açık gökyüzü

METAR: KMFE 190153Z 11006KT 10SM CLR 19/14 A2992 RMK AO2 SLP132 T01940139

Saat: 20:14 (02:14 UTC)

Tahmin

Rapor saat 23:20 UTC de 2 saat ve 54 dakika önce yapıldı.
Ayın 19'si saat 00 UTC'den ayın 19'si saat 24 UTC'ye kadar geçerli Tahmin
Rüzgar kuzeydan kt
Görüş mesafesi: 10 km
25000 ft yükseklikte parçalı bulutlu
Ayın 19'si saat 1100 UTC'den
Rüzgar değişken yönden 3 kt
Görüş mesafesi: 4.8 km
900 ft yükseklikte parçalı bulutlu
Pus
Ayın 19'si saat 1500 UTC'den
Rüzgar güneydoğudan 6 kt
Görüş mesafesi: 10 km
25000 ft yükseklikte az bulutlu

TAF: KMFE 182320Z 1900/1924 00000KT P6SM SCT250 FM191100 VRB03KT 3SM BR SCT009 FM191500 14006KT P6SM FEW250

4.000'den fazla havaalanı için hava durumu gözlemleri ve tahminleri (METAR ve TAF raporları).

Kullanılabilir istasyonlar harita üzerinde sarı ve kırmızı noktalarla gösterilir.

İstasyonun adını görmek için fareyi noktanın üzerinde gezdirin.

Sonrasında hava gözlem ve tahminlerini görmek için tıklayın.

Haritayı değiştirmek için: yaklaştırmak için siyah artı işaretli yeşil düğmeye ve uzaklaştırmak için de eksi işaretli düğmeye hızla tıklayın; bitişik haritalar için yeşil okları kullanın.


METAR-TAF: